createdAt,value
2018-08-23T00:00:21.044Z,65.43
2018-08-23T00:01:22.426Z,65.81
2018-08-23T00:02:23.812Z,66.10
2018-08-23T00:03:25.204Z,66.19
2018-08-23T00:04:26.583Z,66.19
2018-08-23T00:05:27.962Z,66.00
2018-08-23T00:06:29.349Z,66.49
2018-08-23T00:07:30.732Z,66.58
2018-08-23T00:08:32.123Z,66.58
2018-08-23T00:09:33.543Z,66.39
2018-08-23T00:10:34.910Z,66.67
2018-08-23T00:11:36.276Z,67.16
2018-08-23T00:12:37.668Z,67.35
2018-08-23T00:13:39.055Z,67.73
2018-08-23T00:14:40.443Z,67.63
2018-08-23T00:15:41.837Z,67.44
2018-08-23T00:16:43.252Z,67.83
2018-08-23T00:17:44.597Z,68.02
2018-08-23T00:18:45.989Z,68.02
2018-08-23T00:19:47.374Z,68.37
2018-08-23T00:20:48.757Z,68.12
2018-08-23T00:21:50.131Z,68.66
2018-08-23T00:22:51.531Z,68.85
2018-08-23T00:23:52.909Z,68.66
2018-08-23T00:24:54.292Z,69.04
2018-08-23T00:25:55.675Z,68.85
2018-08-23T00:26:57.075Z,68.95
2018-08-23T00:27:58.455Z,68.85
2018-08-23T00:28:59.847Z,69.04
2018-08-23T00:30:01.237Z,68.95
2018-08-23T00:31:02.624Z,69.23
2018-08-23T00:32:04.004Z,68.75
2018-08-23T00:33:05.384Z,69.52
2018-08-23T00:34:06.762Z,69.33
2018-08-23T00:35:08.152Z,69.23
2018-08-23T00:36:09.538Z,69.04
2018-08-23T00:37:10.920Z,68.95
2018-08-23T00:38:12.312Z,68.85
2018-08-23T00:39:13.693Z,69.23
2018-08-23T00:40:15.081Z,68.66
2018-08-23T00:41:16.466Z,68.85
2018-08-23T00:42:17.855Z,69.42
2018-08-23T00:43:19.246Z,69.23
2018-08-23T00:44:20.625Z,69.42
2018-08-23T00:45:22.013Z,69.71
2018-08-23T00:46:23.405Z,69.71
2018-08-23T00:47:24.785Z,70.00
2018-08-23T00:48:26.162Z,69.71
2018-08-23T00:49:27.545Z,69.90
2018-08-23T00:50:28.938Z,70.00
2018-08-23T00:51:30.326Z,69.90
2018-08-23T00:52:31.706Z,69.90
2018-08-23T00:53:33.092Z,70.00
2018-08-23T00:54:34.476Z,70.00
2018-08-23T00:55:35.868Z,70.00
2018-08-23T00:56:37.249Z,70.57
2018-08-23T00:57:38.626Z,70.76
2018-08-23T00:58:40.018Z,70.86
2018-08-23T00:59:41.413Z,71.05
2018-08-23T01:00:42.790Z,71.15
2018-08-23T01:01:44.175Z,71.44
2018-08-23T01:02:45.558Z,71.53
2018-08-23T01:03:46.952Z,71.82
2018-08-23T01:04:48.344Z,71.05
2018-08-23T01:05:49.720Z,70.92
2018-08-23T01:06:51.103Z,71.15
2018-08-23T01:07:52.495Z,71.25
2018-08-23T01:08:53.899Z,71.15
2018-08-23T01:09:55.295Z,71.53
2018-08-23T01:10:56.683Z,71.25
2018-08-23T01:11:58.074Z,71.63
2018-08-23T01:12:59.468Z,71.59
2018-08-23T01:14:00.858Z,71.78
2018-08-23T01:15:02.238Z,71.40
2018-08-23T01:16:03.629Z,71.78
2018-08-23T01:17:05.148Z,71.69
2018-08-23T01:18:06.412Z,71.88
2018-08-23T01:19:07.788Z,71.98
2018-08-23T01:20:09.170Z,71.59
2018-08-23T01:21:10.559Z,71.88
2018-08-23T01:22:11.940Z,71.88
2018-08-23T01:23:13.332Z,72.74
2018-08-23T01:24:14.716Z,72.07
2018-08-23T01:25:16.110Z,72.07
2018-08-23T01:26:17.494Z,72.45
2018-08-23T01:27:18.879Z,72.27
2018-08-23T01:28:20.264Z,72.17
2018-08-23T01:29:21.655Z,72.36
2018-08-23T01:30:23.038Z,72.27
2018-08-23T01:31:24.432Z,72.07
2018-08-23T01:32:25.817Z,72.07
2018-08-23T01:33:27.221Z,71.78
2018-08-23T01:34:28.599Z,71.88
2018-08-23T01:35:29.970Z,71.78
2018-08-23T01:36:31.362Z,71.78
2018-08-23T01:37:32.739Z,71.78
2018-08-23T01:38:34.129Z,72.07
2018-08-23T01:39:35.517Z,71.88
2018-08-23T01:40:36.897Z,72.64
2018-08-23T01:41:38.276Z,72.27
2018-08-23T01:42:39.663Z,72.74
2018-08-23T01:43:41.050Z,72.74
2018-08-23T01:44:42.439Z,72.64
2018-08-23T01:45:43.832Z,72.55
2018-08-23T01:46:45.221Z,73.03
2018-08-23T01:47:46.612Z,72.64
2018-08-23T01:48:47.986Z,72.64
2018-08-23T01:49:49.375Z,72.94
2018-08-23T01:50:50.762Z,72.55
2018-08-23T01:51:52.150Z,72.55
2018-08-23T01:52:53.535Z,72.55
2018-08-23T01:53:54.918Z,72.45
2018-08-23T01:54:56.300Z,72.07
2018-08-23T01:55:57.684Z,72.17
2018-08-23T01:56:59.074Z,72.45
2018-08-23T01:58:00.467Z,71.98
2018-08-23T01:59:01.843Z,72.07
2018-08-23T02:00:03.223Z,72.27
2018-08-23T02:01:04.605Z,72.84
2018-08-23T02:02:05.993Z,72.27
2018-08-23T02:03:07.372Z,72.64
2018-08-23T02:04:08.758Z,72.27
2018-08-23T02:05:10.153Z,71.78
2018-08-23T02:06:11.537Z,71.98
2018-08-23T02:07:12.930Z,71.40
2018-08-23T02:08:14.331Z,71.50
2018-08-23T02:09:15.725Z,71.11
2018-08-23T02:10:17.101Z,71.11
2018-08-23T02:11:18.499Z,71.31
2018-08-23T02:12:19.887Z,71.50
2018-08-23T02:13:21.280Z,71.50
2018-08-23T02:14:22.669Z,71.50
2018-08-23T02:15:24.065Z,71.40
2018-08-23T02:16:25.441Z,71.46
2018-08-23T02:17:26.836Z,71.37
2018-08-23T02:18:28.215Z,71.59
2018-08-23T02:19:29.600Z,71.50
2018-08-23T02:20:30.982Z,71.59
2018-08-23T02:21:32.330Z,71.50
2018-08-23T02:22:33.714Z,71.17
2018-08-23T02:23:35.092Z,71.21
2018-08-23T02:24:37.011Z,71.08
2018-08-23T02:25:38.392Z,71.46
2018-08-23T02:26:39.780Z,71.56
2018-08-23T02:27:41.157Z,71.46
2018-08-23T02:28:42.542Z,71.08
2018-08-23T02:29:43.929Z,71.46
2018-08-23T02:30:45.321Z,70.98
2018-08-23T02:31:46.704Z,71.46
2018-08-23T02:32:48.089Z,71.66
2018-08-23T02:33:49.491Z,71.46
2018-08-23T02:34:50.873Z,71.37
2018-08-23T02:35:52.270Z,71.84
2018-08-23T02:36:53.652Z,71.75
2018-08-23T02:37:55.029Z,71.75
2018-08-23T02:38:56.416Z,72.52
2018-08-23T02:39:57.805Z,72.13
2018-08-23T02:40:59.193Z,72.03
2018-08-23T02:42:00.578Z,72.23
2018-08-23T02:43:01.966Z,71.75
2018-08-23T02:44:03.372Z,72.13
2018-08-23T02:45:04.734Z,72.23
2018-08-23T02:46:06.124Z,71.56
2018-08-23T02:47:07.504Z,71.84
2018-08-23T02:48:08.893Z,71.84
2018-08-23T02:49:10.282Z,72.13
2018-08-23T02:50:11.668Z,71.94
2018-08-23T02:51:13.057Z,72.23
2018-08-23T02:52:14.444Z,72.03
2018-08-23T02:53:15.834Z,72.32
2018-08-23T02:54:17.213Z,72.23
2018-08-23T02:55:18.595Z,72.32
2018-08-23T02:56:19.979Z,72.61
2018-08-23T02:57:21.362Z,73.09
2018-08-23T02:58:22.752Z,72.71
2018-08-23T02:59:24.137Z,72.90
2018-08-23T03:00:25.533Z,73.34
2018-08-23T03:01:26.901Z,73.86
2018-08-23T03:02:28.283Z,73.76
2018-08-23T03:03:29.689Z,73.57
2018-08-23T03:04:31.078Z,73.47
2018-08-23T03:05:32.465Z,73.76
2018-08-23T03:06:33.866Z,73.34
2018-08-23T03:07:35.246Z,73.72
2018-08-23T03:08:36.626Z,73.44
2018-08-23T03:09:38.013Z,74.05
2018-08-23T03:10:39.414Z,73.95
2018-08-23T03:11:40.792Z,73.76
2018-08-23T03:12:42.184Z,74.15
2018-08-23T03:13:44.458Z,73.95
2018-08-23T03:14:45.836Z,73.86
2018-08-23T03:15:47.228Z,73.95
2018-08-23T03:16:48.610Z,73.86
2018-08-23T03:17:50.009Z,73.86
2018-08-23T03:18:51.396Z,73.82
2018-08-23T03:19:52.785Z,74.01
2018-08-23T03:20:54.166Z,74.24
2018-08-23T03:21:55.554Z,74.11
2018-08-23T03:22:56.947Z,74.52
2018-08-23T03:23:58.335Z,74.49
2018-08-23T03:24:59.713Z,74.40
2018-08-23T03:26:01.101Z,75.16
2018-08-23T03:27:02.481Z,74.77
2018-08-23T03:28:03.863Z,74.68
2018-08-23T03:29:05.245Z,75.16
2018-08-23T03:30:06.632Z,75.07
2018-08-23T03:31:08.018Z,74.87
2018-08-23T03:32:09.412Z,74.30
2018-08-23T03:33:10.787Z,74.58
2018-08-23T03:34:12.174Z,74.01
2018-08-23T03:35:13.569Z,74.58
2018-08-23T03:36:14.949Z,74.77
2018-08-23T03:37:16.332Z,74.01
2018-08-23T03:38:17.724Z,74.05
2018-08-23T03:39:19.108Z,73.34
2018-08-23T03:40:20.498Z,73.15
2018-08-23T03:41:21.873Z,73.63
2018-08-23T03:42:23.264Z,73.72
2018-08-23T03:43:24.646Z,74.01
2018-08-23T03:44:26.038Z,73.82
2018-08-23T03:45:27.429Z,74.30
2018-08-23T03:46:28.807Z,74.20
2018-08-23T03:47:30.195Z,74.20
2018-08-23T03:48:31.583Z,74.58
2018-08-23T03:49:32.969Z,75.07
2018-08-23T03:50:34.357Z,74.97
2018-08-23T03:51:35.747Z,74.77
2018-08-23T03:52:37.216Z,75.07
2018-08-23T03:53:38.517Z,74.87
2018-08-23T03:54:39.908Z,75.16
2018-08-23T03:55:41.302Z,75.07
2018-08-23T03:56:42.673Z,74.68
2018-08-23T03:57:44.064Z,74.49
2018-08-23T03:58:45.456Z,74.11
2018-08-23T03:59:46.852Z,74.11
2018-08-23T04:00:48.237Z,74.49
2018-08-23T04:01:49.624Z,74.49
2018-08-23T04:02:51.017Z,74.68
2018-08-23T04:03:52.400Z,74.97
2018-08-23T04:04:53.782Z,74.97
2018-08-23T04:05:55.160Z,74.77
2018-08-23T04:06:56.545Z,75.07
2018-08-23T04:07:57.936Z,75.16
2018-08-23T04:08:59.312Z,74.77
2018-08-23T04:10:00.706Z,74.77
2018-08-23T04:11:02.092Z,74.68
2018-08-23T04:12:03.481Z,74.82
2018-08-23T04:13:04.862Z,74.20
2018-08-23T04:14:06.242Z,74.11
2018-08-23T04:15:07.639Z,74.58
2018-08-23T04:16:09.029Z,75.26
2018-08-23T04:17:10.415Z,74.97
2018-08-23T04:18:11.811Z,75.83
2018-08-23T04:19:13.198Z,75.83
2018-08-23T04:20:14.588Z,75.73
2018-08-23T04:21:15.968Z,76.02
2018-08-23T04:22:17.357Z,76.69
2018-08-23T04:23:18.749Z,76.40
2018-08-23T04:24:20.139Z,76.79
2018-08-23T04:25:21.524Z,76.40
2018-08-23T04:26:22.914Z,76.89
2018-08-23T04:27:24.301Z,76.69
2018-08-23T04:28:25.693Z,76.89
2018-08-23T04:29:27.800Z,76.89
2018-08-23T04:30:29.189Z,77.26
2018-08-23T04:31:30.576Z,76.98
2018-08-23T04:32:31.982Z,77.65
2018-08-23T04:33:33.374Z,77.26
2018-08-23T04:34:34.763Z,77.55
2018-08-23T04:35:36.149Z,77.65
2018-08-23T04:36:37.540Z,77.26
2018-08-23T04:37:38.927Z,76.60
2018-08-23T04:38:40.316Z,76.60
2018-08-23T04:39:41.712Z,77.26
2018-08-23T04:40:43.089Z,76.50
2018-08-23T04:41:44.483Z,75.73
2018-08-23T04:42:45.864Z,75.93
2018-08-23T04:43:47.257Z,76.12
2018-08-23T04:44:48.648Z,75.93
2018-08-23T04:45:50.042Z,76.12
2018-08-23T04:46:51.425Z,76.12
2018-08-23T04:47:52.808Z,76.12
2018-08-23T04:48:54.208Z,75.26
2018-08-23T04:49:55.591Z,74.97
2018-08-23T04:50:56.981Z,74.58
2018-08-23T04:51:58.364Z,74.58
2018-08-23T04:52:59.757Z,74.30
2018-08-23T04:54:01.145Z,73.63
2018-08-23T04:55:02.536Z,74.20
2018-08-23T04:56:03.924Z,73.72
2018-08-23T04:57:05.326Z,73.72
2018-08-23T04:58:06.720Z,74.20
2018-08-23T04:59:08.102Z,73.76
2018-08-23T05:00:09.489Z,74.05
2018-08-23T05:01:10.876Z,74.05
2018-08-23T05:02:12.267Z,73.95
2018-08-23T05:03:13.670Z,74.33
2018-08-23T05:04:15.062Z,74.72
2018-08-23T05:05:16.446Z,74.43
2018-08-23T05:06:17.838Z,74.91
2018-08-23T05:07:19.230Z,74.62
2018-08-23T05:08:20.623Z,75.77
2018-08-23T05:09:22.002Z,75.01
2018-08-23T05:10:23.399Z,75.10
2018-08-23T05:11:24.778Z,75.68
2018-08-23T05:12:26.172Z,75.58
2018-08-23T05:13:27.559Z,75.68
2018-08-23T05:14:28.941Z,76.25
2018-08-23T05:15:30.327Z,75.87
2018-08-23T05:16:31.713Z,75.01
2018-08-23T05:17:33.103Z,74.91
2018-08-23T05:18:34.496Z,74.82
2018-08-23T05:19:35.879Z,75.01
2018-08-23T05:20:37.265Z,74.72
2018-08-23T05:21:38.664Z,74.91
2018-08-23T05:22:40.047Z,74.43
2018-08-23T05:23:41.437Z,74.33
2018-08-23T05:24:42.822Z,74.43
2018-08-23T05:25:44.209Z,74.43
2018-08-23T05:26:45.593Z,75.04
2018-08-23T05:27:46.990Z,74.85
2018-08-23T05:28:48.369Z,74.66
2018-08-23T05:29:49.771Z,74.66
2018-08-23T05:30:51.152Z,74.27
2018-08-23T05:31:52.534Z,74.57
2018-08-23T05:32:53.922Z,74.08
2018-08-23T05:33:55.310Z,74.57
2018-08-23T05:34:56.704Z,74.37
2018-08-23T05:35:58.098Z,74.76
2018-08-23T05:36:59.486Z,74.57
2018-08-23T05:38:00.865Z,74.18
2018-08-23T05:39:02.265Z,74.31
2018-08-23T05:40:03.648Z,73.90
2018-08-23T05:41:05.038Z,74.31
2018-08-23T05:42:06.423Z,74.57
2018-08-23T05:43:07.813Z,74.31
2018-08-23T05:44:09.201Z,74.12
2018-08-23T05:45:10.590Z,74.41
2018-08-23T05:46:11.981Z,73.74
2018-08-23T05:47:13.377Z,73.45
2018-08-23T05:48:14.763Z,73.65
2018-08-23T05:49:16.146Z,72.88
2018-08-23T05:50:17.537Z,72.49
2018-08-23T05:51:18.970Z,73.26
2018-08-23T05:52:20.978Z,72.78
2018-08-23T05:53:22.850Z,73.07
2018-08-23T05:54:24.248Z,73.30
2018-08-23T05:55:25.649Z,72.63
2018-08-23T05:56:27.070Z,73.00
2018-08-23T05:57:28.470Z,72.63
2018-08-23T05:58:29.928Z,72.05
2018-08-23T05:59:31.301Z,72.63
2018-08-23T06:00:32.732Z,71.86
2018-08-23T06:01:34.150Z,72.43
2018-08-23T06:02:35.563Z,72.63
2018-08-23T06:03:36.956Z,72.05
2018-08-23T06:04:38.345Z,72.05
2018-08-23T06:05:39.733Z,72.18
2018-08-23T06:06:41.124Z,72.47
2018-08-23T06:07:42.516Z,72.08
2018-08-23T06:08:43.914Z,72.08
2018-08-23T06:09:45.303Z,71.98
2018-08-23T06:10:46.700Z,71.98
2018-08-23T06:11:48.083Z,72.56
2018-08-23T06:12:49.479Z,72.37
2018-08-23T06:13:50.875Z,72.08
2018-08-23T06:14:52.261Z,71.41
2018-08-23T06:15:53.659Z,71.35
2018-08-23T06:16:55.044Z,71.25
2018-08-23T06:17:56.437Z,71.06
2018-08-23T06:18:57.820Z,71.16
2018-08-23T06:19:59.241Z,71.45
2018-08-23T06:21:00.632Z,71.06
2018-08-23T06:22:02.020Z,71.00
2018-08-23T06:23:03.415Z,70.90
2018-08-23T06:24:04.809Z,70.72
2018-08-23T06:25:06.196Z,71.10
2018-08-23T06:26:07.583Z,70.62
2018-08-23T06:27:08.968Z,70.81
2018-08-23T06:28:10.368Z,71.14
2018-08-23T06:29:11.750Z,70.84
2018-08-23T06:30:13.150Z,70.65
2018-08-23T06:31:14.540Z,70.07
2018-08-23T06:32:15.930Z,69.79
2018-08-23T06:33:17.455Z,69.82
2018-08-23T06:34:18.714Z,69.34
2018-08-23T06:35:20.107Z,68.96
2018-08-23T06:36:21.495Z,68.03
2018-08-23T06:37:22.890Z,67.26
2018-08-23T06:38:24.291Z,66.49
2018-08-23T06:39:25.692Z,66.42
2018-08-23T06:40:27.086Z,66.04
2018-08-23T06:41:28.487Z,64.82
2018-08-23T06:42:29.877Z,64.25
2018-08-23T06:43:31.273Z,64.25
2018-08-23T06:44:32.707Z,63.21
2018-08-23T06:45:34.065Z,63.21
2018-08-23T06:46:35.456Z,63.41
2018-08-23T06:47:36.853Z,63.06
2018-08-23T06:48:38.237Z,62.76
2018-08-23T06:49:39.637Z,62.48
2018-08-23T06:50:41.044Z,61.44
2018-08-23T06:51:42.433Z,61.06
2018-08-23T06:52:43.816Z,59.80
2018-08-23T06:53:45.210Z,59.83
2018-08-23T06:54:46.601Z,59.16
2018-08-23T06:55:48.000Z,58.58
2018-08-23T06:56:49.382Z,57.26
2018-08-23T06:57:50.784Z,57.64
2018-08-23T06:58:52.199Z,57.64
2018-08-23T06:59:53.577Z,56.87
2018-08-23T07:00:54.975Z,56.87
2018-08-23T07:01:56.368Z,57.09
2018-08-23T07:02:57.770Z,56.32
2018-08-23T07:03:59.159Z,56.13
2018-08-23T07:05:00.549Z,56.71
2018-08-23T07:06:01.954Z,57.29
2018-08-23T07:07:03.369Z,57.38
2018-08-23T07:08:04.773Z,55.93
2018-08-23T07:09:06.164Z,55.87
2018-08-23T07:10:07.576Z,56.15
2018-08-23T07:11:08.982Z,56.25
2018-08-23T07:12:10.389Z,55.96
2018-08-23T07:13:11.781Z,55.57
2018-08-23T07:14:13.161Z,55.79
2018-08-23T07:15:14.568Z,56.18
2018-08-23T07:16:15.964Z,55.41
2018-08-23T07:17:17.455Z,55.31
2018-08-23T07:18:18.765Z,55.02
2018-08-23T07:19:20.245Z,55.21
2018-08-23T07:20:21.628Z,54.95
2018-08-23T07:21:23.024Z,54.66
2018-08-23T07:22:24.921Z,55.05
2018-08-23T07:23:26.313Z,55.24
2018-08-23T07:24:29.534Z,54.37
2018-08-23T07:25:30.935Z,53.59
2018-08-23T07:26:32.329Z,53.63
2018-08-23T07:27:33.728Z,54.11
2018-08-23T07:28:35.116Z,53.43
2018-08-23T07:29:36.506Z,53.14
2018-08-23T07:30:37.897Z,52.85
2018-08-23T07:31:39.296Z,52.39
2018-08-23T07:32:40.689Z,52.27
2018-08-23T07:33:42.093Z,52.58
2018-08-23T07:34:43.497Z,52.68
2018-08-23T07:35:44.891Z,51.90
2018-08-23T07:36:46.276Z,52.20
2018-08-23T07:37:47.697Z,51.52
2018-08-23T07:38:49.075Z,52.32
2018-08-23T07:39:50.467Z,52.12
2018-08-23T07:40:51.875Z,51.64
2018-08-23T07:41:53.268Z,51.64
2018-08-23T07:42:54.675Z,50.57
2018-08-23T07:43:56.059Z,51.35
2018-08-23T07:44:57.456Z,51.45
2018-08-23T07:45:58.854Z,50.57
2018-08-23T07:47:00.256Z,50.57
2018-08-23T07:48:01.646Z,51.06
2018-08-23T07:49:03.073Z,50.60
2018-08-23T07:50:04.450Z,50.70
2018-08-23T07:51:05.839Z,50.79
2018-08-23T07:52:07.232Z,50.41
2018-08-23T07:53:08.722Z,49.73
2018-08-23T07:54:10.029Z,50.50
2018-08-23T07:55:11.427Z,50.34
2018-08-23T07:56:12.817Z,50.04
2018-08-23T07:57:14.210Z,50.53
2018-08-23T07:58:15.611Z,50.04
2018-08-23T07:59:17.167Z,50.62
2018-08-23T08:00:18.550Z,50.14
2018-08-23T08:01:19.960Z,49.75
2018-08-23T08:02:21.353Z,49.29
2018-08-23T08:03:22.756Z,49.87
2018-08-23T08:04:24.150Z,49.00
2018-08-23T08:05:25.544Z,48.61
2018-08-23T08:06:26.939Z,48.32
2018-08-23T08:07:28.338Z,47.74
2018-08-23T08:08:29.727Z,48.61
2018-08-23T08:09:31.125Z,49.29
2018-08-23T08:10:32.521Z,49.68
2018-08-23T08:11:33.908Z,48.83
2018-08-23T08:12:35.313Z,49.80
2018-08-23T08:13:36.706Z,48.83
2018-08-23T08:14:38.109Z,48.73
2018-08-23T08:15:39.496Z,49.71
2018-08-23T08:16:40.906Z,48.85
2018-08-23T08:17:42.309Z,49.15
2018-08-23T08:18:43.693Z,48.08
2018-08-23T08:19:45.944Z,48.95
2018-08-23T08:20:47.342Z,49.05
2018-08-23T08:21:48.729Z,48.66
2018-08-23T08:22:50.137Z,48.30
2018-08-23T08:23:51.520Z,47.32
2018-08-23T08:24:52.920Z,47.42
2018-08-23T08:25:54.311Z,48.10
2018-08-23T08:26:55.713Z,47.42
2018-08-23T08:27:57.108Z,47.61
2018-08-23T08:28:58.512Z,47.52
2018-08-23T08:29:59.911Z,51.11
2018-08-23T08:31:01.375Z,49.27
2018-08-23T08:32:02.710Z,47.52
2018-08-23T08:33:04.125Z,46.86
2018-08-23T08:34:05.505Z,48.22
2018-08-23T08:35:06.899Z,47.83
2018-08-23T08:36:08.303Z,46.77
2018-08-23T08:37:09.706Z,45.31
2018-08-23T08:38:11.090Z,46.86
2018-08-23T08:39:12.492Z,44.62
2018-08-23T08:40:13.894Z,44.04
2018-08-23T08:41:15.290Z,44.43
2018-08-23T08:42:16.692Z,44.35
2018-08-23T08:43:18.096Z,44.06
2018-08-23T08:44:19.498Z,43.09
2018-08-23T08:45:20.901Z,43.58
2018-08-23T08:46:22.296Z,42.90
2018-08-23T08:47:23.687Z,42.90
2018-08-23T08:48:25.079Z,43.19
2018-08-23T08:49:26.470Z,42.02
2018-08-23T08:50:27.913Z,41.85
2018-08-23T08:51:29.275Z,41.65
2018-08-23T08:52:30.671Z,42.43
2018-08-23T08:53:32.084Z,42.14
2018-08-23T08:54:33.475Z,42.43
2018-08-23T08:55:34.890Z,42.24
2018-08-23T08:56:36.324Z,43.33
2018-08-23T08:57:37.704Z,43.04
2018-08-23T08:58:39.083Z,42.25
2018-08-23T08:59:40.478Z,42.45
2018-08-23T09:00:41.882Z,42.16
2018-08-23T09:01:43.309Z,42.16
2018-08-23T09:02:44.736Z,42.55
2018-08-23T09:03:46.160Z,42.16
2018-08-23T09:04:47.566Z,42.16
2018-08-23T09:05:48.988Z,42.45
2018-08-23T09:06:50.405Z,42.25
2018-08-23T09:07:51.808Z,42.55
2018-08-23T09:08:53.224Z,42.65
2018-08-23T09:09:54.664Z,42.06
2018-08-23T09:10:55.991Z,42.55
2018-08-23T09:11:57.463Z,41.38
2018-08-23T09:12:58.866Z,41.86
2018-08-23T09:14:00.274Z,41.96
2018-08-23T09:15:01.705Z,41.01
2018-08-23T09:16:03.105Z,41.69
2018-08-23T09:17:04.506Z,40.81
2018-08-23T09:18:06.299Z,40.42
2018-08-23T09:19:07.652Z,40.23
2018-08-23T09:20:09.065Z,41.20
2018-08-23T09:21:10.463Z,40.91
2018-08-23T09:22:11.867Z,40.62
2018-08-23T09:23:13.267Z,40.64
2018-08-23T09:24:14.659Z,40.64
2018-08-23T09:25:16.078Z,40.06
2018-08-23T09:26:17.457Z,40.64
2018-08-23T09:27:18.962Z,39.28
2018-08-23T09:28:20.270Z,39.08
2018-08-23T09:29:21.679Z,39.18
2018-08-23T09:30:23.094Z,38.69
2018-08-23T09:31:24.508Z,38.98
2018-08-23T09:32:25.924Z,38.71
2018-08-23T09:33:27.321Z,38.12
2018-08-23T09:34:28.712Z,37.93
2018-08-23T09:35:30.129Z,37.95
2018-08-23T09:36:31.510Z,38.73
2018-08-23T09:37:32.920Z,37.46
2018-08-23T09:38:34.323Z,37.55
2018-08-23T09:39:35.718Z,37.85
2018-08-23T09:40:37.110Z,37.55
2018-08-23T09:41:38.544Z,37.85
2018-08-23T09:42:39.925Z,37.07
2018-08-23T09:43:41.320Z,38.14
2018-08-23T09:44:42.735Z,38.14
2018-08-23T09:45:44.147Z,36.78
2018-08-23T09:46:45.537Z,37.73
2018-08-23T09:47:46.939Z,37.85
2018-08-23T09:48:48.335Z,37.95
2018-08-23T09:49:49.746Z,37.95
2018-08-23T09:50:51.234Z,36.58
2018-08-23T09:51:52.552Z,36.88
2018-08-23T09:52:53.953Z,36.80
2018-08-23T09:53:55.358Z,36.49
2018-08-23T09:54:56.750Z,36.58
2018-08-23T09:55:58.160Z,35.92
2018-08-23T09:56:59.563Z,36.41
2018-08-23T09:58:00.967Z,36.90
2018-08-23T09:59:02.369Z,36.80
2018-08-23T10:00:03.777Z,36.41
2018-08-23T10:01:05.172Z,35.92
2018-08-23T10:02:06.565Z,36.02
2018-08-23T10:03:07.966Z,35.74
2018-08-23T10:04:09.387Z,35.25
2018-08-23T10:05:10.776Z,35.45
2018-08-23T10:06:12.746Z,35.25
2018-08-23T10:07:13.512Z,35.17
2018-08-23T10:08:14.918Z,35.46
2018-08-23T10:09:16.352Z,34.50
2018-08-23T10:10:17.717Z,34.50
2018-08-23T10:11:19.173Z,33.84
2018-08-23T10:12:20.530Z,33.65
2018-08-23T10:13:21.940Z,33.87
2018-08-23T10:14:23.342Z,33.48
2018-08-23T10:15:24.747Z,33.48
2018-08-23T10:16:26.151Z,32.60
2018-08-23T10:17:27.543Z,32.39
2018-08-23T10:18:28.953Z,33.85
2018-08-23T10:19:30.361Z,33.36
2018-08-23T10:20:31.756Z,33.17
2018-08-23T10:21:33.151Z,33.74
2018-08-23T10:22:34.552Z,33.54
2018-08-23T10:23:35.961Z,34.03
2018-08-23T10:24:38.035Z,34.03
2018-08-23T10:25:39.939Z,33.94
2018-08-23T10:26:42.254Z,33.46
2018-08-23T10:27:43.503Z,33.18
2018-08-23T10:28:44.915Z,32.60
2018-08-23T10:29:46.312Z,32.60
2018-08-23T10:30:47.723Z,32.32
2018-08-23T10:31:49.117Z,31.54
2018-08-23T10:32:50.522Z,31.34
2018-08-23T10:33:51.935Z,31.63
2018-08-23T10:34:53.344Z,31.83
2018-08-23T10:35:54.752Z,32.03
2018-08-23T10:36:56.138Z,32.32
2018-08-23T10:37:57.530Z,32.60
2018-08-23T10:38:58.931Z,32.50
2018-08-23T10:40:00.344Z,32.68
2018-08-23T10:41:01.737Z,33.36
2018-08-23T10:42:03.143Z,33.54
2018-08-23T10:43:04.552Z,33.94
2018-08-23T10:44:06.013Z,33.54
2018-08-23T10:45:07.370Z,33.64
2018-08-23T10:46:08.779Z,33.64
2018-08-23T10:47:10.176Z,33.94
2018-08-23T10:48:11.572Z,33.92
2018-08-23T10:49:12.976Z,34.13
2018-08-23T10:50:14.375Z,34.60
2018-08-23T10:51:15.767Z,34.50
2018-08-23T10:52:17.187Z,34.60
2018-08-23T10:53:18.625Z,34.70
2018-08-23T10:54:20.014Z,34.68
2018-08-23T10:55:21.413Z,34.48
2018-08-23T10:56:22.813Z,34.89
2018-08-23T10:57:24.226Z,35.09
2018-08-23T10:58:25.624Z,33.94
2018-08-23T10:59:27.040Z,33.85
2018-08-23T11:00:28.456Z,33.75
2018-08-23T11:01:29.858Z,33.38
2018-08-23T11:02:31.270Z,32.61
2018-08-23T11:03:32.677Z,32.42
2018-08-23T11:04:34.081Z,32.43
2018-08-23T11:05:35.499Z,32.43
2018-08-23T11:06:36.908Z,32.14
2018-08-23T11:07:38.326Z,31.65
2018-08-23T11:08:39.716Z,31.94
2018-08-23T11:09:41.152Z,31.65
2018-08-23T11:10:42.546Z,31.35
2018-08-23T11:11:43.952Z,31.37
2018-08-23T11:12:45.357Z,31.06
2018-08-23T11:13:46.768Z,31.17
2018-08-23T11:14:48.168Z,31.17
2018-08-23T11:15:49.569Z,31.37
2018-08-23T11:16:51.011Z,30.98
2018-08-23T11:17:52.342Z,31.76
2018-08-23T11:18:53.737Z,31.47
2018-08-23T11:19:55.149Z,31.17
2018-08-23T11:20:56.547Z,31.27
2018-08-23T11:21:57.957Z,31.76
2018-08-23T11:22:59.389Z,31.47
2018-08-23T11:24:00.779Z,31.55
2018-08-23T11:25:02.210Z,31.65
2018-08-23T11:26:03.610Z,31.84
2018-08-23T11:27:05.014Z,31.73
2018-08-23T11:28:06.420Z,32.03
2018-08-23T11:29:07.835Z,32.32
2018-08-23T11:30:09.247Z,32.40
2018-08-23T11:31:10.647Z,32.20
2018-08-23T11:32:12.058Z,32.61
2018-08-23T11:33:13.460Z,32.50
2018-08-23T11:34:14.860Z,32.32
2018-08-23T11:35:16.313Z,32.32
2018-08-23T11:36:17.618Z,32.22
2018-08-23T11:37:19.033Z,31.94
2018-08-23T11:38:20.427Z,32.71
2018-08-23T11:39:21.834Z,32.61
2018-08-23T11:40:23.242Z,33.20
2018-08-23T11:41:24.648Z,33.79
2018-08-23T11:42:26.139Z,33.77
2018-08-23T11:43:27.557Z,33.87
2018-08-23T11:44:28.961Z,33.48
2018-08-23T11:45:30.358Z,33.48
2018-08-23T11:46:31.766Z,33.77
2018-08-23T11:47:33.169Z,34.06
2018-08-23T11:48:34.575Z,33.87
2018-08-23T11:49:35.976Z,33.77
2018-08-23T11:50:37.367Z,33.65
2018-08-23T11:51:38.774Z,34.24
2018-08-23T11:52:40.173Z,34.52
2018-08-23T11:53:41.663Z,34.52
2018-08-23T11:54:42.972Z,34.42
2018-08-23T11:55:44.374Z,34.52
2018-08-23T11:56:45.778Z,34.62
2018-08-23T11:57:47.185Z,34.91
2018-08-23T11:58:48.578Z,34.81
2018-08-23T11:59:49.978Z,35.13
2018-08-23T12:00:51.378Z,36.69
2018-08-23T12:01:52.803Z,36.49
2018-08-23T12:02:54.204Z,36.98
2018-08-23T12:03:55.633Z,37.18
2018-08-23T12:04:57.023Z,35.61
2018-08-23T12:05:58.432Z,36.40
2018-08-23T12:06:59.838Z,35.69
2018-08-23T12:08:01.243Z,34.91
2018-08-23T12:09:02.637Z,34.52
2018-08-23T12:10:04.043Z,35.30
2018-08-23T12:11:05.447Z,35.89
2018-08-23T12:12:07.697Z,36.28
2018-08-23T12:13:09.108Z,35.60
2018-08-23T12:14:10.502Z,35.77
2018-08-23T12:15:11.915Z,35.19
2018-08-23T12:16:13.306Z,35.97
2018-08-23T12:17:14.707Z,36.07
2018-08-23T12:18:16.113Z,35.79
2018-08-23T12:19:17.507Z,35.28
2018-08-23T12:20:18.913Z,35.11
2018-08-23T12:21:20.306Z,35.11
2018-08-23T12:22:21.708Z,35.30
2018-08-23T12:23:23.096Z,34.91
2018-08-23T12:24:24.503Z,35.69
2018-08-23T12:25:25.914Z,35.40
2018-08-23T12:26:27.312Z,34.72
2018-08-23T12:27:28.716Z,35.11
2018-08-23T12:28:30.124Z,35.50
2018-08-23T12:29:31.530Z,35.11
2018-08-23T12:30:32.945Z,35.30
2018-08-23T12:31:34.354Z,35.40
2018-08-23T12:32:35.735Z,35.30
2018-08-23T12:33:37.143Z,35.60
2018-08-23T12:34:38.534Z,35.77
2018-08-23T12:35:39.942Z,35.97
2018-08-23T12:36:41.346Z,36.46
2018-08-23T12:37:42.861Z,36.75
2018-08-23T12:38:44.145Z,36.85
2018-08-23T12:39:45.549Z,36.55
2018-08-23T12:40:46.977Z,36.63
2018-08-23T12:41:48.340Z,36.36
2018-08-23T12:42:49.738Z,36.46
2018-08-23T12:43:51.192Z,36.83
2018-08-23T12:44:52.543Z,36.16
2018-08-23T12:45:53.945Z,35.77
2018-08-23T12:46:55.353Z,35.38
2018-08-23T12:47:56.754Z,35.58
2018-08-23T12:48:58.144Z,36.08
2018-08-23T12:49:59.541Z,35.60
2018-08-23T12:51:00.934Z,35.69
2018-08-23T12:52:02.336Z,35.50
2018-08-23T12:53:03.737Z,34.91
2018-08-23T12:54:05.153Z,34.64
2018-08-23T12:55:06.540Z,34.74
2018-08-23T12:56:07.946Z,34.45
2018-08-23T12:57:09.344Z,34.16
2018-08-23T12:58:10.758Z,34.36
2018-08-23T12:59:12.167Z,34.65
2018-08-23T13:00:13.572Z,34.64
2018-08-23T13:01:14.979Z,34.83
2018-08-23T13:02:16.419Z,35.32
2018-08-23T13:03:17.739Z,35.11
2018-08-23T13:04:19.223Z,34.81
2018-08-23T13:05:20.540Z,35.30
2018-08-23T13:06:21.949Z,35.60
2018-08-23T13:07:23.351Z,35.87
2018-08-23T13:08:24.796Z,36.07
2018-08-23T13:09:26.157Z,36.36
2018-08-23T13:10:27.565Z,36.26